Time;durP1;ratioP1;P1;durP2;ratioP2;P2;SDS_P1;SDS_P2;PMS_P1;PMS_P2;Temp;Humidity;BMP_temperature;BMP_pressure;BME280_temperature;BME280_humidity;BME280_pressure;Samples;Min_cycle;Max_cycle;Signal;HPM_P1;HPM_P2
2022/06/14 00:03:39;;;;;;;4.8;2.6;;;;;;;13.51;82.58691;943.1877;;;;
2022/06/14 00:09:54;;;;;;;4.4;2.7;;;;;;;13.38;83.02441;943.209;;;;
2022/06/14 00:12:19;;;;;;;4.2;2.8;;;;;;;13.31;83.25098;943.2117;;;;
2022/06/14 00:15:17;;;;;;;5.4;2.7;;;;;;;13.31;83.06641;943.2004;;;;
2022/06/14 00:17:45;;;;;;;3.4;2.5;;;;;;;13.23;83.11035;943.1848;;;;
2022/06/14 00:20:10;;;;;;;4.8;3;;;;;;;13.24;83.3418;943.1385;;;;
2022/06/14 00:22:35;;;;;;;3.3;2.7;;;;;;;13.22;83.46289;943.1239;;;;
2022/06/14 00:25:00;;;;;;;4.8;2.9;;;;;;;13.2;83.69141;943.0939;;;;
2022/06/14 00:27:26;;;;;;;5.6;2.7;;;;;;;13.17;83.77734;943.1038;;;;
2022/06/14 00:29:54;;;;;;;4.3;2.9;;;;;;;13.25;83.60742;943.0969;;;;
2022/06/14 00:32:19;;;;;;;4.3;3;;;;;;;13.27;83.47363;943.0995;;;;
2022/06/14 00:34:45;;;;;;;5.6;2.9;;;;;;;13.27;82.87598;943.0115;;;;
2022/06/14 00:37:10;;;;;;;4;2.7;;;;;;;13.21;83.28906;943.0012;;;;
2022/06/14 00:39:47;;;;;;;4.1;3;;;;;;;13.16;83.26758;943.0421;;;;
2022/06/14 00:42:14;;;;;;;3.8;2.6;;;;;;;13.24;82.59375;943.1312;;;;
2022/06/14 00:47:50;;;;;;;3.1;2.6;;;;;;;12.9;83.24121;943.0974;;;;
2022/06/14 00:50:17;;;;;;;5.4;2.8;;;;;;;12.91;83.34473;943.0335;;;;
2022/06/14 00:52:40;;;;;;;4.8;2.9;;;;;;;13.05;82.89063;943.0101;;;;
2022/06/14 00:55:09;;;;;;;4.5;2.6;;;;;;;13.04;82.56738;943.0844;;;;
2022/06/14 00:57:33;;;;;;;4.1;2.4;;;;;;;13;82.26172;943.0527;;;;
2022/06/14 00:59:58;;;;;;;4.8;2.5;;;;;;;12.87;82.89258;943.0996;;;;
2022/06/14 01:02:24;;;;;;;4;2.7;;;;;;;12.91;82.66895;943.0272;;;;
2022/06/14 01:04:49;;;;;;;5;2.8;;;;;;;12.92;82.59277;943.0137;;;;
2022/06/14 01:07:14;;;;;;;4.2;2.9;;;;;;;12.88;82.77734;943.0284;;;;
2022/06/14 01:09:39;;;;;;;4.4;2.8;;;;;;;12.78;83.43555;942.9835;;;;
2022/06/14 01:12:08;;;;;;;3.7;2.6;;;;;;;12.86;82.90234;943.0628;;;;
2022/06/14 01:14:32;;;;;;;3.7;2.6;;;;;;;12.85;82.6709;943.0131;;;;
2022/06/14 01:18:30;;;;;;;4.2;2.7;;;;;;;12.8;82.62598;943.0235;;;;
2022/06/14 01:20:52;;;;;;;4.9;2.9;;;;;;;12.65;82.72266;942.9895;;;;
2022/06/14 01:23:18;;;;;;;4.2;2.7;;;;;;;12.46;83.92676;943.0322;;;;
2022/06/14 01:25:43;;;;;;;4.2;2.8;;;;;;;12.53;83.92773;943.0248;;;;
2022/06/14 01:28:09;;;;;;;5.8;3.1;;;;;;;12.59;83.72168;942.9783;;;;
2022/06/14 01:30:34;;;;;;;4.4;2.9;;;;;;;12.61;83.25391;943.0016;;;;
2022/06/14 01:32:59;;;;;;;3.1;2.6;;;;;;;12.49;83.43945;943.0101;;;;
2022/06/14 01:35:24;;;;;;;6.4;2.8;;;;;;;12.49;83.56543;942.9885;;;;
2022/06/14 01:37:50;;;;;;;3.9;3.1;;;;;;;12.54;82.81738;942.9274;;;;
2022/06/14 01:40:15;;;;;;;3.6;2.8;;;;;;;12.42;83.17285;942.9247;;;;
2022/06/14 01:42:42;;;;;;;3;2.7;;;;;;;12.44;83.00586;942.9266;;;;
2022/06/14 01:45:07;;;;;;;2.9;2.6;;;;;;;12.33;83.43066;942.9731;;;;
2022/06/14 01:47:35;;;;;;;4.8;2.9;;;;;;;12.3;83.62988;943.0103;;;;
2022/06/14 01:52:27;;;;;;;4;2.8;;;;;;;12.23;84.40918;942.9576;;;;
2022/06/14 01:54:52;;;;;;;4.6;2.8;;;;;;;12.29;84.04297;942.9495;;;;
2022/06/14 01:57:17;;;;;;;7;3.2;;;;;;;12.38;83.57715;942.9296;;;;
2022/06/14 01:59:42;;;;;;;4.2;2.9;;;;;;;12.31;83.47363;942.9106;;;;
2022/06/14 02:02:08;;;;;;;4.4;2.8;;;;;;;12.26;83.87695;942.8973;;;;
2022/06/14 02:04:39;;;;;;;4.3;2.8;;;;;;;12.22;83.65039;942.8969;;;;
2022/06/14 02:06:58;;;;;;;4.5;2.7;;;;;;;12.18;83.63086;942.9001;;;;
2022/06/14 02:09:23;;;;;;;3.9;2.7;;;;;;;11.9;84.80371;942.9215;;;;
2022/06/14 02:11:48;;;;;;;4.4;2.7;;;;;;;11.84;85.3623;942.9327;;;;
2022/06/14 02:14:13;;;;;;;4;3;;;;;;;11.91;85.23926;942.9503;;;;
2022/06/14 02:16:38;;;;;;;4.1;2.7;;;;;;;11.97;84.96484;942.9071;;;;
2022/06/14 02:19:03;;;;;;;4;3;;;;;;;11.97;84.89453;942.9095;;;;
2022/06/14 02:21:28;;;;;;;3.8;3;;;;;;;12.01;84.83691;942.9324;;;;
2022/06/14 02:23:54;;;;;;;2.9;2.3;;;;;;;11.66;85.74121;942.95;;;;
2022/06/14 02:26:19;;;;;;;4.9;2.7;;;;;;;11.52;86.62988;942.9127;;;;
2022/06/14 02:28:44;;;;;;;3.4;2.8;;;;;;;11.59;86.56152;942.9072;;;;
2022/06/14 02:31:09;;;;;;;5.2;2.8;;;;;;;11.66;86.4834;942.8661;;;;
2022/06/14 02:33:34;;;;;;;3.2;2.8;;;;;;;11.73;86.0752;942.8566;;;;
2022/06/14 02:35:59;;;;;;;5;2.7;;;;;;;11.69;85.98633;942.8769;;;;
2022/06/14 02:38:25;;;;;;;4.1;2.6;;;;;;;11.71;85.77246;942.8405;;;;
2022/06/14 02:41:03;;;;;;;4.4;2.9;;;;;;;11.51;86.3877;942.8775;;;;
2022/06/14 02:43:28;;;;;;;4.3;3;;;;;;;11.51;86.77441;942.8153;;;;
2022/06/14 02:45:54;;;;;;;5.6;2.9;;;;;;;11.61;86.30273;942.8045;;;;
2022/06/14 02:48:21;;;;;;;6;3.1;;;;;;;11.63;86.24902;942.7805;;;;
2022/06/14 02:50:46;;;;;;;4.2;2.7;;;;;;;11.61;86.02734;942.8364;;;;
2022/06/14 02:53:14;;;;;;;4;3;;;;;;;11.62;85.81152;942.7364;;;;
2022/06/14 02:55:36;;;;;;;3.9;2.8;;;;;;;11.36;86.82422;942.7755;;;;
2022/06/14 02:58:01;;;;;;;5.6;2.7;;;;;;;11.35;86.94824;942.7092;;;;
2022/06/14 03:00:26;;;;;;;3.8;2.8;;;;;;;11.49;86.4502;942.7894;;;;
2022/06/14 03:02:52;;;;;;;3.7;2.8;;;;;;;11.45;86.31543;942.7467;;;;
2022/06/14 03:05:17;;;;;;;4.1;3.1;;;;;;;11.37;86.58594;942.8066;;;;
2022/06/14 03:07:44;;;;;;;5.1;3.5;;;;;;;11.27;86.91016;942.7631;;;;
2022/06/14 03:10:09;;;;;;;5.5;3.1;;;;;;;11.13;87.45313;942.7681;;;;
2022/06/14 03:12:34;;;;;;;4.9;3.2;;;;;;;11.16;87.45898;942.7636;;;;
2022/06/14 03:14:59;;;;;;;6.5;3.8;;;;;;;11.31;86.72168;942.7596;;;;
2022/06/14 03:17:24;;;;;;;6;3.5;;;;;;;11.15;87.13672;942.7276;;;;
2022/06/14 03:19:49;;;;;;;6.1;3.4;;;;;;;11.12;87.81738;942.7544;;;;
2022/06/14 03:22:14;;;;;;;5.8;3.3;;;;;;;11.16;87.27539;942.6752;;;;
2022/06/14 03:24:39;;;;;;;4.2;3.1;;;;;;;11.22;86.94531;942.7106;;;;
2022/06/14 03:27:04;;;;;;;4.5;3.1;;;;;;;11.31;86.55176;942.7389;;;;
2022/06/14 03:29:31;;;;;;;4.6;3.2;;;;;;;11.35;86.30762;942.7506;;;;
2022/06/14 03:33:00;;;;;;;5.3;3.1;;;;;;;11.28;86.93359;942.709;;;;
2022/06/14 03:35:26;;;;;;;4.5;3.3;;;;;;;11.11;87.24414;942.7566;;;;
2022/06/14 03:40:16;;;;;;;4;3.2;;;;;;;11.13;87.26074;942.8295;;;;
2022/06/14 03:42:42;;;;;;;5.5;3;;;;;;;11.04;87.51465;942.7899;;;;
2022/06/14 03:45:28;;;;;;;5.7;3.8;;;;;;;11.06;87.51855;942.8123;;;;
2022/06/14 03:47:53;;;;;;;3.1;2.8;;;;;;;10.96;88.15039;942.7844;;;;
2022/06/14 03:50:24;;;;;;;3.2;2.9;;;;;;;11.17;87.19727;942.7789;;;;
2022/06/14 03:52:49;;;;;;;6.4;3.3;;;;;;;11.28;86.63574;942.8342;;;;
2022/06/14 03:55:16;;;;;;;5.6;3.3;;;;;;;11.24;86.4707;942.8258;;;;
2022/06/14 03:57:41;;;;;;;4;3.1;;;;;;;11.34;86.17969;942.8741;;;;
2022/06/14 04:02:54;;;;;;;5.4;3;;;;;;;11.11;87.39258;942.8259;;;;
2022/06/14 04:04:56;;;;;;;4.7;3.3;;;;;;;11.07;87.38379;942.8118;;;;
2022/06/14 04:07:21;;;;;;;6.9;3.3;;;;;;;10.92;88.48535;942.8467;;;;
2022/06/14 04:09:48;;;;;;;6.2;3.1;;;;;;;10.94;88.83203;942.7912;;;;
2022/06/14 04:12:39;;;;;;;5.4;3.2;;;;;;;11.08;88.33594;942.7036;;;;
2022/06/14 04:15:03;;;;;;;5.5;3.4;;;;;;;11.22;87.63184;942.6428;;;;
2022/06/14 04:17:31;;;;;;;5.4;3.3;;;;;;;11.36;86.97266;942.742;;;;
2022/06/14 04:19:56;;;;;;;5;3.1;;;;;;;11.45;86.37305;942.7388;;;;
2022/06/14 04:22:22;;;;;;;4.1;2.9;;;;;;;11.53;86.20605;942.7484;;;;
2022/06/14 04:24:47;;;;;;;5.9;3.1;;;;;;;11.36;86.18555;942.7859;;;;
2022/06/14 04:27:12;;;;;;;3.6;2.9;;;;;;;11.28;87.00195;942.7712;;;;
2022/06/14 04:29:37;;;;;;;6.9;3.7;;;;;;;11.21;87.31934;942.7523;;;;
2022/06/14 04:34:36;;;;;;;7;3.8;;;;;;;11.16;88.29395;942.7174;;;;
2022/06/14 04:37:01;;;;;;;7.1;3.5;;;;;;;11.25;87.88867;942.7502;;;;
2022/06/14 04:39:27;;;;;;;4;3.1;;;;;;;11.34;87.44922;942.7481;;;;
2022/06/14 04:41:55;;;;;;;8.8;3.8;;;;;;;11.32;87.37695;942.7335;;;;
2022/06/14 04:44:18;;;;;;;5.6;3.6;;;;;;;11.46;86.9834;942.6887;;;;
2022/06/14 04:46:43;;;;;;;7.1;3.5;;;;;;;11.57;86.33105;942.7363;;;;
2022/06/14 04:49:10;;;;;;;6;3.4;;;;;;;11.64;86.20508;942.8156;;;;
2022/06/14 04:51:35;;;;;;;9.5;4.1;;;;;;;11.62;86.08887;942.7356;;;;
2022/06/14 04:54:01;;;;;;;4.2;3.3;;;;;;;11.63;85.95117;942.675;;;;
2022/06/14 04:56:26;;;;;;;8.8;3.9;;;;;;;11.55;86.53223;942.7536;;;;
2022/06/14 04:58:51;;;;;;;6.4;3.7;;;;;;;11.67;86.50781;942.7936;;;;
2022/06/14 05:01:16;;;;;;;9;3.8;;;;;;;11.75;87.04102;942.7859;;;;
2022/06/14 05:03:41;;;;;;;6.6;3.9;;;;;;;13.18;85.30566;942.7252;;;;
2022/06/14 05:06:07;;;;;;;8.7;3.8;;;;;;;14.64;75.54199;942.6347;;;;
2022/06/14 05:08:32;;;;;;;6.4;2.8;;;;;;;16.28;68.13184;942.6061;;;;
2022/06/14 05:10:57;;;;;;;6.7;2.9;;;;;;;16.99;65.86719;942.6571;;;;
2022/06/14 05:13:22;;;;;;;4.9;2.5;;;;;;;18.28;61.49121;942.6248;;;;
2022/06/14 05:15:49;;;;;;;6.4;3;;;;;;;18.31;60.33496;942.6267;;;;
2022/06/14 05:18:14;;;;;;;5.5;2.6;;;;;;;19.23;57.6875;942.5655;;;;
2022/06/14 05:20:39;;;;;;;4.3;2;;;;;;;20.45;54.0752;942.5352;;;;
2022/06/14 05:23:04;;;;;;;3.5;1.8;;;;;;;18.3;58.87988;942.5035;;;;
2022/06/14 05:25:31;;;;;;;5.5;2.2;;;;;;;19.23;57.54688;942.5073;;;;
2022/06/14 05:27:56;;;;;;;3.3;1.9;;;;;;;19.61;55.19629;942.5592;;;;
2022/06/14 05:30:21;;;;;;;5;2.2;;;;;;;19.37;56.27246;942.483;;;;
2022/06/14 05:32:46;;;;;;;4;1.8;;;;;;;20.78;51.6377;942.5069;;;;
2022/06/14 05:35:11;;;;;;;3.1;1.7;;;;;;;19.95;52.46289;942.5477;;;;
2022/06/14 05:37:39;;;;;;;2.9;1.9;;;;;;;21.44;50.28711;942.5158;;;;
2022/06/14 05:43:16;;;;;;;2.7;1.6;;;;;;;21.89;49.16602;942.5263;;;;
2022/06/14 05:45:41;;;;;;;4.1;1.8;;;;;;;22.34;46.45898;942.5268;;;;
2022/06/14 05:48:06;;;;;;;2.9;1.8;;;;;;;23.88;44.89063;942.5029;;;;
2022/06/14 05:50:31;;;;;;;2.6;1.6;;;;;;;22.84;44.75;942.452;;;;
2022/06/14 05:52:56;;;;;;;3.1;1.7;;;;;;;25.1;41.02441;942.4176;;;;
2022/06/14 05:55:21;;;;;;;2.8;1.8;;;;;;;24.02;42.52637;942.4791;;;;
2022/06/14 05:57:46;;;;;;;3;1.4;;;;;;;22.29;46.41992;942.4364;;;;
2022/06/14 06:00:12;;;;;;;2;1.8;;;;;;;21.78;49.59863;942.4822;;;;
2022/06/14 06:02:36;;;;;;;1.7;1.6;;;;;;;21.76;47.80469;942.4001;;;;
2022/06/14 06:05:02;;;;;;;3.7;1.8;;;;;;;23.08;46.24316;942.3862;;;;
2022/06/14 06:07:27;;;;;;;3.8;1.7;;;;;;;22.84;44.42188;942.3658;;;;
2022/06/14 06:09:54;;;;;;;2.5;1.9;;;;;;;23.9;44.5625;942.3826;;;;
2022/06/14 06:12:20;;;;;;;3.2;1.6;;;;;;;25.51;42.53809;942.3762;;;;
2022/06/14 06:14:45;;;;;;;3.7;1.5;;;;;;;26.51;37.80273;942.3226;;;;
2022/06/14 06:17:10;;;;;;;2.1;1.5;;;;;;;26.28;38.39844;942.2667;;;;
2022/06/14 06:19:35;;;;;;;2.4;1.6;;;;;;;25.08;40.31445;942.3322;;;;
2022/06/14 06:22:00;;;;;;;2.4;1.5;;;;;;;24.48;41.40332;942.2584;;;;
2022/06/14 06:24:26;;;;;;;2.1;1.5;;;;;;;25.29;41.69043;942.2856;;;;
2022/06/14 06:26:51;;;;;;;2.2;1.6;;;;;;;25.79;40.04785;942.2335;;;;
2022/06/14 06:29:16;;;;;;;3.8;1.6;;;;;;;25.74;39.08496;942.2422;;;;
2022/06/14 06:31:41;;;;;;;3.2;1.4;;;;;;;28.01;36.11133;942.2388;;;;
2022/06/14 06:34:10;;;;;;;3.5;1.5;;;;;;;27.75;36.58984;942.1438;;;;
2022/06/14 06:36:32;;;;;;;2.4;1.7;;;;;;;28.52;34.63086;942.2054;;;;
2022/06/14 06:38:58;;;;;;;3.4;1.8;;;;;;;29.49;33.53711;942.2396;;;;
2022/06/14 06:43:48;;;;;;;2.8;1.6;;;;;;;28.68;34.4873;942.163;;;;
2022/06/14 06:46:13;;;;;;;5.1;1.8;;;;;;;29.27;34.41406;942.2211;;;;
2022/06/14 06:48:38;;;;;;;1.9;1.4;;;;;;;29.35;33.24121;942.1974;;;;
2022/06/14 06:51:06;;;;;;;2.7;1.6;;;;;;;28.06;37.2207;942.1525;;;;
2022/06/14 06:53:31;;;;;;;4.8;1.7;;;;;;;30.63;32.00879;942.1348;;;;
2022/06/14 06:55:56;;;;;;;4.1;1.7;;;;;;;30.52;31.17676;942.1195;;;;
2022/06/14 06:58:23;;;;;;;2.7;1.6;;;;;;;28.37;34.66602;942.1616;;;;
2022/06/14 07:00:48;;;;;;;1.4;1.3;;;;;;;29.67;33.66992;942.1685;;;;
2022/06/14 07:03:16;;;;;;;2.2;1.5;;;;;;;31.45;31.60059;942.1527;;;;
2022/06/14 07:05:41;;;;;;;2;1.5;;;;;;;31.87;30.26367;942.1218;;;;
2022/06/14 07:08:06;;;;;;;4.4;1.7;;;;;;;30.94;30.12891;942.0815;;;;
2022/06/14 07:10:33;;;;;;;2;1.5;;;;;;;32.04;29.51953;942.1324;;;;
2022/06/14 07:12:58;;;;;;;1.6;1.5;;;;;;;29.28;32.84277;942.1273;;;;
2022/06/14 07:15:23;;;;;;;1.7;1.3;;;;;;;31.18;31.33008;942.0563;;;;
2022/06/14 07:17:49;;;;;;;2.3;1.4;;;;;;;30.24;34.56055;942.1033;;;;
2022/06/14 07:20:14;;;;;;;3.1;1.8;;;;;;;30.64;32.58301;942.0543;;;;
2022/06/14 07:22:40;;;;;;;4.7;1.8;;;;;;;29.91;36.16895;942.0616;;;;
2022/06/14 07:25:05;;;;;;;4.2;1.6;;;;;;;30.17;32.20313;942.1067;;;;
2022/06/14 07:27:30;;;;;;;3.4;1.6;;;;;;;30.61;33.64453;942.0556;;;;
2022/06/14 07:29:55;;;;;;;3;1.7;;;;;;;30.13;32.61816;942.0833;;;;
2022/06/14 07:32:21;;;;;;;3.8;1.7;;;;;;;30.34;33.18164;942.0628;;;;
2022/06/14 07:34:46;;;;;;;3.8;1.6;;;;;;;30.62;31.04102;942.0139;;;;
2022/06/14 07:37:11;;;;;;;1.7;1.5;;;;;;;30.16;33.88477;942.0377;;;;
2022/06/14 07:39:37;;;;;;;7.3;1.7;;;;;;;30.27;33.32031;941.967;;;;
2022/06/14 07:42:02;;;;;;;3.8;1.7;;;;;;;30.55;33.20996;941.9554;;;;
2022/06/14 07:44:27;;;;;;;6;1.5;;;;;;;29.42;33.75781;941.9992;;;;
2022/06/14 07:46:52;;;;;;;1.9;1.3;;;;;;;29.35;36.51758;941.9925;;;;
2022/06/14 07:49:17;;;;;;;1.3;1.2;;;;;;;29.7;33.94629;941.9575;;;;
2022/06/14 07:51:43;;;;;;;2;1.8;;;;;;;30.18;34.49512;941.9221;;;;
2022/06/14 07:54:08;;;;;;;2.8;1.5;;;;;;;30.65;31.91406;941.9977;;;;
2022/06/14 07:56:33;;;;;;;3.3;1.6;;;;;;;29.65;33.21484;941.9455;;;;
2022/06/14 07:58:58;;;;;;;1.8;1.4;;;;;;;29.73;33.55469;941.9278;;;;
2022/06/14 08:01:23;;;;;;;2.1;1.6;;;;;;;29.85;35.36523;941.8984;;;;
2022/06/14 08:03:48;;;;;;;2.2;1.3;;;;;;;30.68;30.23145;941.853;;;;
2022/06/14 08:06:13;;;;;;;2.8;1.5;;;;;;;28.75;37.83691;941.8522;;;;
2022/06/14 08:08:39;;;;;;;2.1;1.6;;;;;;;28.81;34.31934;941.8508;;;;
2022/06/14 08:11:04;;;;;;;3.7;1.6;;;;;;;30.53;33.57813;941.8161;;;;
2022/06/14 08:13:29;;;;;;;1.4;1.3;;;;;;;32.04;30.81348;941.8549;;;;
2022/06/14 08:15:55;;;;;;;3.6;1.8;;;;;;;31.47;30.90723;941.8619;;;;
2022/06/14 08:18:19;;;;;;;2;1.4;;;;;;;33;29.19824;941.8451;;;;
2022/06/14 08:20:44;;;;;;;3.1;1.7;;;;;;;30.75;35.05273;941.8203;;;;
2022/06/14 08:23:09;;;;;;;3.4;1.6;;;;;;;31.25;33.42871;941.8136;;;;
2022/06/14 08:25:34;;;;;;;2.2;1.2;;;;;;;32.41;30.75586;941.7745;;;;
2022/06/14 08:27:59;;;;;;;1.7;1.6;;;;;;;30.91;31.31152;941.7584;;;;
2022/06/14 08:30:25;;;;;;;2.3;1.5;;;;;;;31.3;32.21191;941.7707;;;;
2022/06/14 08:32:50;;;;;;;3.8;1.5;;;;;;;32.05;28.74219;941.7427;;;;
2022/06/14 08:35:15;;;;;;;2.5;1.6;;;;;;;32.69;27.0293;941.7651;;;;
2022/06/14 08:37:40;;;;;;;3;1.6;;;;;;;30.73;32.12402;941.8055;;;;
2022/06/14 08:40:05;;;;;;;2.9;1.4;;;;;;;31.5;30.50195;941.8276;;;;
2022/06/14 08:42:30;;;;;;;2.3;1.5;;;;;;;31.24;31.13086;941.7559;;;;
2022/06/14 08:44:55;;;;;;;1.9;1.4;;;;;;;31.73;28.85254;941.663;;;;
2022/06/14 08:47:20;;;;;;;1.5;1.3;;;;;;;28.27;35.96582;941.7346;;;;
2022/06/14 08:49:49;;;;;;;2.4;1.3;;;;;;;27.2;40.88379;941.6872;;;;
2022/06/14 08:52:12;;;;;;;17.5;2.8;;;;;;;28.9;36.77832;941.6291;;;;
2022/06/14 08:54:37;;;;;;;2.7;1.4;;;;;;;28.69;35.0127;941.6943;;;;
2022/06/14 08:57:33;;;;;;;37.4;4.7;;;;;;;29.93;32.61523;941.6606;;;;
2022/06/14 08:59:59;;;;;;;6.5;1.8;;;;;;;30.23;32.75586;941.5649;;;;
2022/06/14 09:02:25;;;;;;;2.1;1.3;;;;;;;29.81;34.30078;941.6822;;;;
2022/06/14 09:04:52;;;;;;;2.3;1.5;;;;;;;30.16;33.65918;941.6677;;;;
2022/06/14 09:07:17;;;;;;;2.2;1.5;;;;;;;30.94;31.81543;941.6259;;;;
2022/06/14 09:09:43;;;;;;;2.7;1.5;;;;;;;30.86;33.66309;941.5416;;;;
2022/06/14 09:12:10;;;;;;;2.5;1.5;;;;;;;30.36;34.1748;941.6089;;;;
2022/06/14 09:14:34;;;;;;;4.3;1.5;;;;;;;29.88;35.68945;941.5964;;;;
2022/06/14 09:17:07;;;;;;;4.5;1.6;;;;;;;30.41;32.99609;941.5433;;;;
2022/06/14 09:19:32;;;;;;;4.8;1.5;;;;;;;30.57;32.62695;941.5428;;;;
2022/06/14 09:21:57;;;;;;;1.6;1.2;;;;;;;31.29;31.79297;941.4474;;;;
2022/06/14 09:24:23;;;;;;;2.9;1.4;;;;;;;30.28;33.62012;941.4095;;;;
2022/06/14 09:26:50;;;;;;;2.6;1.4;;;;;;;29.31;35.42969;941.4803;;;;
2022/06/14 09:29:14;;;;;;;2.8;1.4;;;;;;;29.85;33.82617;941.4182;;;;
2022/06/14 09:31:41;;;;;;;3.5;1.7;;;;;;;29.21;37.36328;941.4554;;;;
2022/06/14 09:34:05;;;;;;;2.3;1.5;;;;;;;29.3;33.83301;941.4336;;;;
2022/06/14 09:36:31;;;;;;;2.6;1.6;;;;;;;29.6;34.86914;941.4244;;;;
2022/06/14 09:38:56;;;;;;;2.6;1.5;;;;;;;28.54;38.05762;941.4006;;;;
2022/06/14 09:41:21;;;;;;;2.9;1.4;;;;;;;28.44;36.80078;941.4224;;;;
2022/06/14 09:43:49;;;;;;;2.6;1.5;;;;;;;28.46;36.74219;941.4264;;;;
2022/06/14 09:46:14;;;;;;;3.2;1.5;;;;;;;28.63;35.37695;941.3653;;;;
2022/06/14 09:48:39;;;;;;;3.7;1.6;;;;;;;27.21;39.88965;941.3684;;;;
2022/06/14 09:51:04;;;;;;;2.6;1.6;;;;;;;27.06;39.90039;941.2949;;;;
2022/06/14 09:53:31;;;;;;;20.7;3;;;;;;;26.59;41.99023;941.283;;;;
2022/06/14 09:55:56;;;;;;;2;1.5;;;;;;;27.27;38.49512;941.2748;;;;
2022/06/14 09:58:21;;;;;;;2.1;1.4;;;;;;;27.36;38.72852;941.2786;;;;
2022/06/14 10:00:47;;;;;;;2.3;1.6;;;;;;;27.46;38.71289;941.255;;;;
2022/06/14 10:03:12;;;;;;;3.5;1.8;;;;;;;27.63;37.24414;941.2031;;;;
2022/06/14 10:05:37;;;;;;;1.5;1.4;;;;;;;26.97;39.21582;941.2327;;;;
2022/06/14 10:08:03;;;;;;;4.3;1.4;;;;;;;27.09;38.91895;941.2115;;;;
2022/06/14 10:10:28;;;;;;;2.4;1.7;;;;;;;26.36;43.25879;941.2169;;;;
2022/06/14 10:12:53;;;;;;;2.6;1.5;;;;;;;26.49;41.54297;941.1628;;;;
2022/06/14 10:15:18;;;;;;;3.6;1.6;;;;;;;26.31;40.65039;941.1683;;;;
2022/06/14 10:17:45;;;;;;;4.1;1.6;;;;;;;25.99;41.4248;941.1256;;;;
2022/06/14 10:20:13;;;;;;;5;2.2;;;;;;;24.92;45.37305;941.1588;;;;
2022/06/14 10:22:37;;;;;;;3.6;1.7;;;;;;;25.27;44.95996;941.0959;;;;
2022/06/14 10:25:02;;;;;;;2.9;1.5;;;;;;;25.67;41.73828;941.1544;;;;
2022/06/14 10:29:52;;;;;;;2.7;1.6;;;;;;;24.81;46.94141;941.0386;;;;
2022/06/14 10:32:19;;;;;;;3.4;1.8;;;;;;;24.26;47.5791;941.1254;;;;
2022/06/14 10:34:45;;;;;;;2.3;1.5;;;;;;;24.76;44.46094;941.0698;;;;
2022/06/14 10:37:10;;;;;;;11.3;4.6;;;;;;;24.88;45.03711;941.0848;;;;
2022/06/14 10:39:35;;;;;;;3.1;1.8;;;;;;;24.93;44.98438;941.063;;;;
2022/06/14 10:42:00;;;;;;;3.5;2;;;;;;;25.17;44.00488;941.0586;;;;
2022/06/14 10:44:25;;;;;;;4.9;2.1;;;;;;;25;45.49902;941.0386;;;;
2022/06/14 10:46:50;;;;;;;4.4;1.8;;;;;;;24.86;45.34277;941.0684;;;;
2022/06/14 10:49:16;;;;;;;8.5;4.2;;;;;;;24.71;44.67969;941.0261;;;;
2022/06/14 10:51:40;;;;;;;3.6;2.4;;;;;;;24.62;46.21484;940.9841;;;;
2022/06/14 10:54:05;;;;;;;11;5.5;;;;;;;24.39;49.59668;940.9969;;;;
2022/06/14 10:56:31;;;;;;;9;4;;;;;;;24.67;48.64941;940.9919;;;;
2022/06/14 10:58:56;;;;;;;7.9;3.5;;;;;;;24.7;48.84082;940.9222;;;;
2022/06/14 11:01:21;;;;;;;10.4;5.7;;;;;;;24.66;47.40918;940.912;;;;
2022/06/14 11:07:16;;;;;;;8.2;4.4;;;;;;;24.73;45.67188;940.8602;;;;
2022/06/14 11:09:39;;;;;;;7.3;3.3;;;;;;;24.96;46.06055;940.9037;;;;
2022/06/14 11:12:04;;;;;;;6.5;3.2;;;;;;;24.48;47.03613;940.8694;;;;
2022/06/14 11:14:29;;;;;;;6.4;2.8;;;;;;;24.69;47.10645;940.8521;;;;
2022/06/14 11:16:54;;;;;;;6.3;3.9;;;;;;;24.65;47.68066;940.8184;;;;
2022/06/14 11:19:25;;;;;;;3.7;2;;;;;;;24.71;49.20703;940.7891;;;;
2022/06/14 11:21:45;;;;;;;2.7;1.7;;;;;;;24.37;47.20215;940.7975;;;;
2022/06/14 11:24:11;;;;;;;3.5;1.8;;;;;;;24.37;47.03711;940.7576;;;;
2022/06/14 11:26:36;;;;;;;3.2;1.7;;;;;;;24.36;49.48633;940.7565;;;;
2022/06/14 11:29:01;;;;;;;3.5;1.6;;;;;;;24.66;45.11133;940.7864;;;;
2022/06/14 11:31:26;;;;;;;4;1.6;;;;;;;24.78;45.18164;940.7161;;;;
2022/06/14 11:33:51;;;;;;;3.1;1.7;;;;;;;24.93;44.51172;940.7447;;;;
2022/06/14 11:36:17;;;;;;;32.9;3.9;;;;;;;25.07;44.05371;940.7158;;;;
2022/06/14 11:38:42;;;;;;;6.5;2;;;;;;;25.11;44.51953;940.6264;;;;
2022/06/14 11:41:07;;;;;;;4.7;2;;;;;;;25.3;44.78613;940.678;;;;
2022/06/14 11:43:32;;;;;;;2.7;1.9;;;;;;;24.95;45.62305;940.6411;;;;
2022/06/14 11:45:58;;;;;;;2.6;1.7;;;;;;;24.66;47.28027;940.7277;;;;
2022/06/14 11:48:23;;;;;;;3.3;2.1;;;;;;;24.79;45.61816;940.6386;;;;
2022/06/14 11:50:48;;;;;;;2.9;1.6;;;;;;;24.79;44.21582;940.7084;;;;
2022/06/14 11:53:13;;;;;;;4.5;2;;;;;;;24.91;44.41504;940.6494;;;;
2022/06/14 11:55:39;;;;;;;1.9;1.4;;;;;;;25;43.24512;940.5909;;;;
2022/06/14 11:58:03;;;;;;;3.4;1.8;;;;;;;25.13;43.81152;940.5645;;;;
2022/06/14 12:00:28;;;;;;;5.2;1.9;;;;;;;25.16;45.11426;940.4931;;;;
2022/06/14 12:02:54;;;;;;;3.9;1.6;;;;;;;25.06;46.25977;940.5075;;;;
2022/06/14 12:05:21;;;;;;;3.8;1.8;;;;;;;24.81;46.09277;940.5147;;;;
2022/06/14 12:07:46;;;;;;;4.6;1.5;;;;;;;24.78;46.00684;940.5184;;;;
2022/06/14 12:10:11;;;;;;;1.6;1.5;;;;;;;24.83;45.74023;940.4995;;;;
2022/06/14 12:12:36;;;;;;;2.2;1.5;;;;;;;24.75;45.64941;940.5231;;;;
2022/06/14 12:15:01;;;;;;;4.3;1.8;;;;;;;24.82;46.3291;940.4744;;;;
2022/06/14 12:17:27;;;;;;;4.1;2.2;;;;;;;24.62;47.51172;940.4994;;;;
2022/06/14 12:19:53;;;;;;;5.8;2;;;;;;;24.8;45.96191;940.3922;;;;
2022/06/14 12:22:29;;;;;;;3.1;1.9;;;;;;;24.88;46.67773;940.3667;;;;
2022/06/14 12:27:07;;;;;;;3.1;1.7;;;;;;;24.94;46.55371;940.4233;;;;
2022/06/14 12:29:34;;;;;;;2.8;2.3;;;;;;;24.93;45.39648;940.4367;;;;
2022/06/14 12:31:59;;;;;;;2.8;1.8;;;;;;;24.92;44.00488;940.3887;;;;
2022/06/14 12:34:24;;;;;;;2.8;1.9;;;;;;;25.09;43.0293;940.4327;;;;
2022/06/14 12:36:49;;;;;;;2;1.6;;;;;;;25.12;44.7207;940.3669;;;;
2022/06/14 12:39:14;;;;;;;2.2;1.4;;;;;;;24.89;45.9834;940.3281;;;;
2022/06/14 12:41:39;;;;;;;2.8;1.6;;;;;;;25.07;47.03906;940.4092;;;;
2022/06/14 12:44:04;;;;;;;6;1.8;;;;;;;25.21;43.22949;940.3654;;;;
2022/06/14 12:46:29;;;;;;;2.7;1.6;;;;;;;25.14;45.48926;940.3574;;;;
2022/06/14 12:48:56;;;;;;;3.1;1.7;;;;;;;25.39;45.70313;940.3024;;;;
2022/06/14 12:51:22;;;;;;;2.1;1.6;;;;;;;25.39;43.88477;940.2805;;;;
2022/06/14 12:53:46;;;;;;;3.3;1.9;;;;;;;25.34;43.77441;940.285;;;;
2022/06/14 12:56:11;;;;;;;8.8;2.2;;;;;;;25.33;43.87988;940.2587;;;;
2022/06/14 12:58:36;;;;;;;3;1.7;;;;;;;25.12;45.46387;940.239;;;;
2022/06/14 13:01:01;;;;;;;2;1.8;;;;;;;25.1;45.02441;940.2333;;;;
2022/06/14 13:03:26;;;;;;;3;1.8;;;;;;;25.23;45.2627;940.2125;;;;
2022/06/14 13:05:52;;;;;;;4.4;1.7;;;;;;;25.3;46.65039;940.1622;;;;
2022/06/14 13:08:17;;;;;;;2.9;1.8;;;;;;;25.33;45.86328;940.1655;;;;
2022/06/14 13:10:42;;;;;;;2.2;1.5;;;;;;;25.29;43.60449;940.0881;;;;
2022/06/14 13:13:07;;;;;;;4.2;1.9;;;;;;;25.35;45.25098;940.0686;;;;
2022/06/14 13:15:34;;;;;;;5.2;3;;;;;;;25.27;44.0625;940.0753;;;;
2022/06/14 13:18:00;;;;;;;5.6;2.7;;;;;;;25.09;45.8623;940.0366;;;;
2022/06/14 13:20:24;;;;;;;5.5;2.8;;;;;;;24.97;47.14746;940.0623;;;;
2022/06/14 13:22:49;;;;;;;5.1;2.4;;;;;;;25.01;45.25293;940.0689;;;;
2022/06/14 13:25:16;;;;;;;4.1;2;;;;;;;25.04;45.77344;940.0391;;;;
2022/06/14 13:27:42;;;;;;;5.4;2.2;;;;;;;25.07;45.22266;940.0514;;;;
2022/06/14 13:30:07;;;;;;;3.2;2;;;;;;;25.02;44.5332;939.9562;;;;
2022/06/14 13:32:32;;;;;;;4.1;2.2;;;;;;;24.94;45.75195;939.9539;;;;
2022/06/14 13:34:57;;;;;;;1.5;1.2;;;;;;;24.94;44.91504;939.9365;;;;
2022/06/14 13:37:22;;;;;;;2.7;1.7;;;;;;;24.96;45.3877;939.9489;;;;
2022/06/14 13:39:49;;;;;;;3.3;2;;;;;;;25.17;45.68164;939.9582;;;;
2022/06/14 13:42:12;;;;;;;2.5;1.5;;;;;;;25.11;44.91992;939.9819;;;;
2022/06/14 13:44:37;;;;;;;4.2;2;;;;;;;25.09;44.28027;939.9235;;;;
2022/06/14 13:47:02;;;;;;;2.9;1.6;;;;;;;25.02;43.38867;939.8985;;;;
2022/06/14 13:49:27;;;;;;;2.2;1.6;;;;;;;24.76;47.52637;939.8992;;;;
2022/06/14 13:51:53;;;;;;;3.2;1.7;;;;;;;24.81;44.90234;939.9019;;;;
2022/06/14 13:54:44;;;;;;;3.1;1.9;;;;;;;24.8;45.52539;939.9067;;;;
2022/06/14 13:57:09;;;;;;;3;1.9;;;;;;;24.78;46.72559;939.8603;;;;
2022/06/14 13:59:35;;;;;;;2.7;1.7;;;;;;;24.65;46.08887;939.8981;;;;
2022/06/14 14:02:00;;;;;;;2.1;1.6;;;;;;;24.83;45.51563;939.8516;;;;
2022/06/14 14:04:25;;;;;;;2.6;1.5;;;;;;;24.86;44.10352;939.7878;;;;
2022/06/14 14:06:51;;;;;;;2.7;1.6;;;;;;;24.76;45.56934;939.8356;;;;
2022/06/14 14:11:02;;;;;;;2.9;1.6;;;;;;;24.69;45.92773;939.8233;;;;
2022/06/14 14:13:12;;;;;;;1.8;1.7;;;;;;;24.71;45.49414;939.8206;;;;
2022/06/14 14:15:42;;;;;;;2.7;1.9;;;;;;;24.72;45.94141;939.7871;;;;
2022/06/14 14:18:07;;;;;;;4.3;2;;;;;;;24.76;46.20605;939.6613;;;;
2022/06/14 14:20:31;;;;;;;2.2;1.6;;;;;;;24.9;44.85156;939.7656;;;;
2022/06/14 14:22:57;;;;;;;3;1.9;;;;;;;24.98;43.89258;939.7368;;;;
2022/06/14 14:25:22;;;;;;;4.3;1.9;;;;;;;25;44.27148;939.7349;;;;
2022/06/14 14:27:48;;;;;;;2.8;1.7;;;;;;;25.04;44.03906;939.7154;;;;
2022/06/14 14:30:13;;;;;;;3.9;2;;;;;;;24.92;44.95996;939.657;;;;
2022/06/14 14:32:38;;;;;;;2.3;2;;;;;;;24.8;45.76172;939.6654;;;;
2022/06/14 14:35:04;;;;;;;3.1;1.8;;;;;;;24.67;43.81348;939.6492;;;;
2022/06/14 14:37:29;;;;;;;2.6;1.7;;;;;;;24.65;44.46094;939.6068;;;;
2022/06/14 14:39:54;;;;;;;4.3;2.2;;;;;;;24.65;45.14453;939.6256;;;;
2022/06/14 14:42:26;;;;;;;3.5;1.8;;;;;;;24.69;44.66602;939.5676;;;;
2022/06/14 14:44:50;;;;;;;5.2;1.7;;;;;;;24.78;45.81836;939.5212;;;;
2022/06/14 14:47:15;;;;;;;4.7;2.2;;;;;;;24.79;44.19238;939.4899;;;;
2022/06/14 14:49:40;;;;;;;3.5;1.9;;;;;;;24.78;45.16895;939.5508;;;;
2022/06/14 14:52:07;;;;;;;5;1.9;;;;;;;24.83;45.0459;939.4305;;;;
2022/06/14 14:54:32;;;;;;;2.2;1.6;;;;;;;24.72;44.23242;939.5351;;;;